Time;durP1;ratioP1;P1;durP2;ratioP2;P2;SDS_P1;SDS_P2;PMS_P1;PMS_P2;Temp;Humidity;BMP_temperature;BMP_pressure;BME280_temperature;BME280_humidity;BME280_pressure;Samples;Min_cycle;Max_cycle;Signal;HPM_P1;HPM_P2
2023/09/04 00:08:11;;;;;;;3.85;2.67;;;;;;;24.77;60.11;100169.88;31363218;28;20112;-82
2023/09/04 00:23:13;;;;;;;6.15;2.80;;;;;;;24.73;60.56;100165.84;31371773;28;20508;-81
2023/09/04 00:38:15;;;;;;;4.88;2.83;;;;;;;24.69;60.93;100162.59;31366549;28;20470;-81
2023/09/04 00:53:18;;;;;;;5.22;3.03;;;;;;;24.53;61.58;100167.00;31372616;28;20147;-81
2023/09/04 01:08:20;;;;;;;3.80;2.90;;;;;;;24.48;62.19;100159.44;31389934;28;20131;-82
2023/09/04 01:23:22;;;;;;;5.63;3.35;;;;;;;24.52;62.69;100153.63;31387501;28;20067;-81
2023/09/04 01:38:24;;;;;;;4.28;3.08;;;;;;;24.27;64.14;100144.44;31398641;28;20088;-80
2023/09/04 01:53:26;;;;;;;7.10;3.45;;;;;;;23.90;66.37;100140.00;31384810;28;20064;-80
2023/09/04 02:08:28;;;;;;;13.80;8.00;;;;;;;23.62;68.86;100133.81;31397297;28;20502;-82
2023/09/04 02:23:30;;;;;;;5.35;3.22;;;;;;;23.52;70.42;100132.53;31379960;28;20154;-81
2023/09/04 02:38:32;;;;;;;8.10;3.72;;;;;;;23.39;73.38;100130.28;31366593;28;20080;-81
2023/09/04 02:53:35;;;;;;;7.50;3.83;;;;;;;23.32;74.66;100128.78;31374095;28;20498;-81
2023/09/04 03:08:40;;;;;;;6.28;3.90;;;;;;;23.22;78.07;100121.25;31371001;28;20083;-80
2023/09/04 03:23:42;;;;;;;6.90;4.47;;;;;;;23.05;80.28;100132.34;31363316;28;20140;-81
2023/09/04 03:38:44;;;;;;;8.50;4.25;;;;;;;23.21;82.20;100126.03;31383132;28;20053;-80
2023/09/04 03:53:46;;;;;;;10.40;4.78;;;;;;;23.48;82.18;100128.00;31364750;28;20066;-81
2023/09/04 04:08:49;;;;;;;11.70;5.80;;;;;;;24.04;83.16;100124.34;31365596;28;20421;-81
2023/09/04 04:23:51;;;;;;;7.70;4.85;;;;;;;24.46;83.04;100118.34;31384593;28;20053;-82
2023/09/04 04:38:53;;;;;;;9.77;5.28;;;;;;;25.10;79.92;100129.25;31390931;28;20080;-81
2023/09/04 04:53:56;;;;;;;11.18;5.10;;;;;;;25.67;77.50;100144.13;31392005;28;20057;-82
2023/09/04 05:08:58;;;;;;;9.25;5.25;;;;;;;26.28;74.20;100148.19;31387841;28;20139;-82
2023/09/04 05:24:00;;;;;;;10.30;6.28;;;;;;;26.86;70.84;100150.44;31405492;28;20059;-82
2023/09/04 05:39:02;;;;;;;8.57;4.90;;;;;;;27.18;69.09;100149.16;31371940;28;20473;-82
2023/09/04 05:54:05;;;;;;;10.85;5.50;;;;;;;27.97;66.57;100142.91;31379633;28;20099;-83
2023/09/04 06:09:07;;;;;;;6.40;4.70;;;;;;;28.82;63.77;100139.78;31400349;28;20044;-81
2023/09/04 06:24:09;;;;;;;8.00;4.90;;;;;;;29.53;60.97;100144.09;31384402;28;20048;-82
2023/09/04 06:39:11;;;;;;;;;;;;;;;29.76;59.12;100144.28;31387345;28;20053;-80
2023/09/04 06:54:14;;;;;;;10.35;4.93;;;;;;;30.52;57.49;100136.16;31367752;28;19921;-82
2023/09/04 07:09:16;;;;;;;6.68;4.25;;;;;;;30.82;55.94;100127.84;31400625;28;20053;-81
2023/09/04 07:24:18;;;;;;;13.70;4.88;;;;;;;31.86;54.08;100126.09;31385401;28;20092;-76
2023/09/04 07:39:20;;;;;;;10.70;4.88;;;;;;;32.29;52.20;100135.47;31361598;28;20088;-81
2023/09/04 07:54:22;;;;;;;8.65;4.32;;;;;;;32.74;51.05;100129.59;31361941;28;20131;-78
2023/09/04 08:09:24;;;;;;;8.73;4.90;;;;;;;34.04;48.51;100128.34;31369811;28;20399;-76
2023/09/04 08:24:26;;;;;;;5.40;4.13;;;;;;;34.88;45.97;100128.72;31348468;28;20049;-83
2023/09/04 08:39:28;;;;;;;6.25;4.60;;;;;;;35.70;44.91;100112.19;31380595;28;20518;-77
2023/09/04 08:54:33;;;;;;;8.88;5.00;;;;;;;36.37;43.09;100119.91;31340503;28;20239;-85
2023/09/04 09:09:42;;;;;;;7.57;4.45;;;;;;;36.46;41.75;100100.06;31432806;28;20047;-87
2023/09/04 09:24:54;;;;;;;7.10;4.05;;;;;;;37.42;40.96;100107.31;31393886;28;20139;-79
2023/09/04 09:39:56;;;;;;;11.43;4.32;;;;;;;37.79;39.83;100107.63;31409244;28;20053;-81
2023/09/04 09:54:58;;;;;;;7.88;3.80;;;;;;;38.28;38.41;100102.19;31401513;28;20152;-79
2023/09/04 10:10:05;;;;;;;13.32;6.20;;;;;;;38.12;37.71;100110.44;31395445;28;20036;-79
2023/09/04 10:25:31;;;;;;;10.60;4.50;;;;;;;37.84;38.30;100117.84;31392933;28;20052;-85
2023/09/04 10:40:35;;;;;;;6.95;3.60;;;;;;;38.65;37.29;100130.00;31397863;28;20048;-88
2023/09/04 11:12:20;;;;;;;9.52;4.70;;;;;;;38.89;36.34;100120.88;31463558;28;20193;-84
2023/09/04 11:27:24;;;;;;;8.95;4.05;;;;;;;37.66;37.65;100121.59;31398992;28;20448;-82
2023/09/04 11:42:27;;;;;;;8.88;3.92;;;;;;;38.04;37.17;100118.41;31393308;28;20040;-83
2023/09/04 11:57:32;;;;;;;5.82;4.10;;;;;;;36.18;38.19;100115.00;31419656;28;20121;-83
2023/09/04 12:12:35;;;;;;;11.18;7.55;;;;;;;34.39;41.23;100134.69;31388875;28;20095;-80
2023/09/04 12:27:41;;;;;;;31.35;20.38;;;;;;;34.57;40.43;100121.28;31368146;28;20046;-87
2023/09/04 12:42:44;;;;;;;7.32;4.40;;;;;;;33.86;41.41;100105.13;31404450;28;20057;-79
2023/09/04 12:57:47;;;;;;;15.63;10.60;;;;;;;33.74;41.03;100109.75;31404134;28;20123;-80
2023/09/04 13:12:49;;;;;;;6.22;3.72;;;;;;;34.03;41.26;100110.72;31403635;28;20092;-79
2023/09/04 13:27:51;;;;;;;5.70;3.97;;;;;;;33.59;41.99;100119.09;31400249;28;20053;-83
2023/09/04 13:42:53;;;;;;;39.97;25.27;;;;;;;33.45;41.64;100120.75;31397128;28;20049;-85
2023/09/04 13:57:55;;;;;;;16.98;4.35;;;;;;;33.17;42.39;100130.38;31401601;28;20122;-81
2023/09/04 14:12:57;;;;;;;9.75;4.28;;;;;;;32.90;42.82;100147.09;31448793;28;20059;-77
2023/09/04 14:27:59;;;;;;;14.07;6.85;;;;;;;32.57;43.83;100152.00;31376012;28;20413;-78
2023/09/04 14:43:01;;;;;;;10.60;4.60;;;;;;;32.46;44.32;100160.84;31406368;28;20044;-78
2023/09/04 14:58:04;;;;;;;11.85;5.20;;;;;;;32.27;44.37;100175.38;31384022;28;20550;-80
2023/09/04 15:13:06;;;;;;;8.68;5.05;;;;;;;32.24;44.97;100172.94;31396524;28;20045;-81
2023/09/04 15:28:08;;;;;;;13.27;6.15;;;;;;;31.93;46.03;100167.41;31421282;28;20491;-79
2023/09/04 15:43:10;;;;;;;13.32;8.50;;;;;;;31.72;47.14;100183.75;31414387;28;20150;-79
2023/09/04 15:58:13;;;;;;;11.30;6.22;;;;;;;31.52;47.40;100203.00;31390036;28;20074;-82
2023/09/04 16:13:18;;;;;;;13.80;7.10;;;;;;;31.30;47.65;100226.22;31405610;28;20482;-80
2023/09/04 16:28:22;;;;;;;9.38;5.65;;;;;;;31.25;47.43;100234.78;31418166;28;20052;-79
2023/09/04 16:43:24;;;;;;;13.63;6.75;;;;;;;31.11;48.26;100251.03;31419025;28;20045;-80
2023/09/04 16:58:27;;;;;;;15.20;6.57;;;;;;;30.90;48.02;100261.63;31428719;28;20045;-79
2023/09/04 17:13:30;;;;;;;13.10;7.50;;;;;;;30.38;50.52;100274.84;31401463;28;20057;-78
2023/09/04 17:28:35;;;;;;;14.27;6.78;;;;;;;30.09;51.04;100300.06;31403859;28;20036;-78
2023/09/04 17:43:38;;;;;;;14.00;6.63;;;;;;;30.08;50.77;100315.38;31406494;28;20090;-88
2023/09/04 17:58:41;;;;;;;9.60;5.57;;;;;;;30.14;50.28;100318.03;31414303;28;20049;-79
2023/09/04 18:13:43;;;;;;;9.63;5.47;;;;;;;29.93;50.53;100323.63;31399751;28;20087;-79
2023/09/04 18:28:47;;;;;;;13.18;5.82;;;;;;;29.67;51.23;100334.97;31407772;28;20135;-79
2023/09/04 18:43:49;;;;;;;14.35;5.97;;;;;;;29.66;50.97;100331.44;31386092;28;20048;-79
2023/09/04 18:58:52;;;;;;;10.27;6.63;;;;;;;29.62;51.51;100341.47;31371518;28;20056;-77
2023/09/04 19:13:54;;;;;;;10.13;5.90;;;;;;;29.19;52.30;100357.41;31372026;28;20053;-77
2023/09/04 19:28:56;;;;;;;10.97;6.40;;;;;;;29.05;52.10;100358.00;31370154;28;20435;-77
2023/09/04 19:43:58;;;;;;;11.43;6.87;;;;;;;28.76;52.28;100368.97;31377047;28;20313;-77
2023/09/04 19:59:00;;;;;;;;;;;;;;;28.41;54.21;100374.97;31380728;28;20043;-77
2023/09/04 20:14:04;;;;;;;12.30;7.28;;;;;;;28.18;53.85;100385.75;31381119;28;19921;-77
2023/09/04 20:29:06;;;;;;;11.80;5.95;;;;;;;27.90;54.48;100383.44;31393607;28;21565;-76
2023/09/04 20:44:09;;;;;;;10.90;6.67;;;;;;;27.61;55.43;100378.88;31388082;28;20076;-78
2023/09/04 20:59:11;;;;;;;10.33;6.53;;;;;;;27.56;55.47;100376.88;31400924;28;20509;-79
2023/09/04 23:32:51;;;;;;;14.98;8.05;;;;;;;25.57;71.72;100443.13;31381854;28;20079;-78
2023/09/04 23:47:50;;;;;;;17.65;8.60;;;;;;;25.33;76.36;100433.41;31358264;28;20152;-78
